Time;durP1;ratioP1;P1;durP2;ratioP2;P2;SDS_P1;SDS_P2;PMS_P1;PMS_P2;Temp;Humidity;BMP_temperature;BMP_pressure;BME280_temperature;BME280_humidity;BME280_pressure;Samples;Min_cycle;Max_cycle;Signal;HPM_P1;HPM_P2
2023/10/18 00:01:25;;;;;;;1999.90;999.90;;;4.40;99.90;;;;;;5048568;28;20390;-65
2023/10/18 00:03:54;;;;;;;1999.90;999.90;;;4.40;99.90;;;;;;5029398;28;20451;-65
2023/10/18 00:06:22;;;;;;;1999.90;999.90;;;4.40;99.90;;;;;;5062121;28;20060;-65
2023/10/18 00:08:49;;;;;;;1999.90;999.90;;;4.40;99.90;;;;;;5014753;28;20044;-65
2023/10/18 00:11:15;;;;;;;1999.90;999.90;;;4.40;99.90;;;;;;5059161;28;20075;-65
2023/10/18 00:13:50;;;;;;;1999.90;999.90;;;4.40;99.90;;;;;;5029030;28;20041;-65
2023/10/18 00:16:16;;;;;;;1999.90;999.90;;;4.40;99.90;;;;;;5047181;28;20489;-65
2023/10/18 00:18:42;;;;;;;1999.90;999.90;;;4.40;99.90;;;;;;5051159;28;20048;-65
2023/10/18 00:21:08;;;;;;;1999.90;999.90;;;4.40;99.90;;;;;;5028395;28;20106;-65
2023/10/18 00:23:34;;;;;;;1999.90;999.90;;;4.40;99.90;;;;;;5051073;28;20446;-65
2023/10/18 00:26:11;;;;;;;1999.90;999.90;;;4.30;99.90;;;;;;5046969;28;20036;-65
2023/10/18 00:28:37;;;;;;;1999.90;999.90;;;4.30;99.90;;;;;;5042251;28;20120;-65
2023/10/18 00:31:17;;;;;;;1999.90;999.90;;;4.30;99.90;;;;;;5045714;28;20033;-65
2023/10/18 00:33:44;;;;;;;1999.90;999.90;;;4.30;99.90;;;;;;5042013;28;20060;-65
2023/10/18 00:36:10;;;;;;;1999.90;999.90;;;4.30;99.90;;;;;;5039976;28;20033;-65
2023/10/18 00:38:39;;;;;;;1999.90;999.90;;;4.40;99.90;;;;;;5058704;28;20126;-65
2023/10/18 00:41:14;;;;;;;1999.90;999.90;;;4.50;99.90;;;;;;5027049;28;20118;-65
2023/10/18 00:43:44;;;;;;;1999.90;999.90;;;4.40;99.90;;;;;;5044611;28;20049;-65
2023/10/18 00:46:10;;;;;;;1999.90;999.90;;;4.50;99.90;;;;;;5047914;28;20052;-65
2023/10/18 00:48:36;;;;;;;1999.90;999.90;;;4.40;99.90;;;;;;5047477;28;20045;-65
2023/10/18 00:51:03;;;;;;;1999.90;999.90;;;4.40;99.90;;;;;;5048328;28;20118;-65
2023/10/18 00:53:33;;;;;;;1999.90;999.90;;;4.40;99.90;;;;;;5063517;28;20045;-65
2023/10/18 00:55:59;;;;;;;1999.90;999.90;;;4.40;99.90;;;;;;5022621;28;20047;-65
2023/10/18 00:58:27;;;;;;;1999.90;999.90;;;4.40;99.90;;;;;;5042941;28;20045;-65
2023/10/18 01:00:54;;;;;;;1999.90;999.90;;;4.40;99.90;;;;;;5034632;28;20054;-65
2023/10/18 01:03:29;;;;;;;1999.90;999.90;;;4.50;99.90;;;;;;5040728;28;20570;-65
2023/10/18 01:06:05;;;;;;;1999.90;999.90;;;4.50;99.90;;;;;;5023990;28;20037;-65
2023/10/18 01:08:32;;;;;;;1999.90;999.90;;;4.50;99.90;;;;;;5045754;28;20385;-65
2023/10/18 01:11:04;;;;;;;1999.90;999.90;;;4.50;99.90;;;;;;5041804;28;20103;-65
2023/10/18 01:13:30;;;;;;;1999.90;999.90;;;4.50;99.90;;;;;;5046112;28;20090;-65
2023/10/18 01:15:56;;;;;;;1999.90;999.90;;;4.40;99.90;;;;;;5047120;28;20033;-65
2023/10/18 01:18:22;;;;;;;1999.90;999.90;;;4.40;99.90;;;;;;5031663;28;20037;-66
2023/10/18 01:20:48;;;;;;;1999.90;999.90;;;4.40;99.90;;;;;;5035035;28;20084;-65
2023/10/18 01:23:14;;;;;;;1999.90;999.90;;;4.40;99.90;;;;;;5054498;28;20812;-65
2023/10/18 01:25:39;;;;;;;1999.90;999.90;;;4.40;99.90;;;;;;5030767;28;20547;-65
2023/10/18 01:28:05;;;;;;;1999.90;999.90;;;4.40;99.90;;;;;;5042499;28;20040;-65
2023/10/18 01:30:33;;;;;;;1999.90;999.90;;;4.30;99.90;;;;;;5032381;28;20117;-65
2023/10/18 01:33:00;;;;;;;1999.90;999.90;;;4.30;99.90;;;;;;5037816;28;20116;-65
2023/10/18 01:35:26;;;;;;;1999.90;999.90;;;4.30;99.90;;;;;;5045821;28;20041;-65
2023/10/18 01:37:53;;;;;;;1999.90;999.90;;;4.30;99.90;;;;;;5040236;28;20098;-65
2023/10/18 01:41:08;;;;;;;1999.90;999.90;;;4.30;99.90;;;;;;5044820;28;20135;-65
2023/10/18 01:43:10;;;;;;;1999.90;999.90;;;4.30;99.90;;;;;;5032002;28;20079;-65
2023/10/18 01:45:37;;;;;;;1999.90;999.90;;;4.30;99.90;;;;;;5041112;28;20032;-65
2023/10/18 01:48:06;;;;;;;1999.90;999.90;;;4.30;99.90;;;;;;5046721;28;20527;-65
2023/10/18 01:50:32;;;;;;;1999.90;999.90;;;4.30;99.90;;;;;;5048076;28;20053;-65
2023/10/18 01:53:00;;;;;;;1999.90;999.90;;;4.30;99.90;;;;;;5046598;28;20083;-65
2023/10/18 01:55:28;;;;;;;1999.90;999.90;;;4.30;99.90;;;;;;5047162;28;20072;-65
2023/10/18 01:57:53;;;;;;;1999.90;999.90;;;4.30;99.90;;;;;;5046166;28;20051;-65
2023/10/18 02:00:25;;;;;;;1999.90;999.90;;;4.30;99.90;;;;;;5042829;28;20505;-65
2023/10/18 02:02:51;;;;;;;1999.90;999.90;;;4.30;99.90;;;;;;5044415;28;20120;-65
2023/10/18 02:05:17;;;;;;;1999.90;999.90;;;4.20;99.90;;;;;;5031385;28;20041;-65
2023/10/18 02:07:47;;;;;;;1999.90;999.90;;;4.20;99.90;;;;;;5046928;28;20056;-65
2023/10/18 02:10:20;;;;;;;1999.90;999.90;;;4.20;99.90;;;;;;5046002;28;20463;-65
2023/10/18 02:12:46;;;;;;;1999.90;999.90;;;4.20;99.90;;;;;;5040431;28;20155;-65
2023/10/18 02:15:12;;;;;;;1999.90;999.90;;;4.20;99.90;;;;;;5030424;28;20517;-66
2023/10/18 02:17:39;;;;;;;1999.90;999.90;;;4.20;99.90;;;;;;5049061;28;20064;-65
2023/10/18 02:20:14;;;;;;;1999.90;999.90;;;4.10;99.90;;;;;;5037767;28;20086;-65
2023/10/18 02:22:43;;;;;;;1999.90;999.90;;;4.10;99.90;;;;;;5031545;28;20044;-65
2023/10/18 02:25:09;;;;;;;1999.90;999.90;;;4.10;99.90;;;;;;5046587;28;20116;-65
2023/10/18 02:27:36;;;;;;;1999.90;999.90;;;4.10;99.90;;;;;;5030579;28;20123;-65
2023/10/18 02:30:03;;;;;;;1999.90;999.90;;;4.10;99.90;;;;;;5034385;28;20052;-65
2023/10/18 02:32:35;;;;;;;1999.90;999.90;;;4.10;99.90;;;;;;5045335;28;20105;-65
2023/10/18 02:35:04;;;;;;;1999.90;999.90;;;4.10;99.90;;;;;;5062516;28;20040;-65
2023/10/18 02:37:31;;;;;;;1999.90;999.90;;;4.10;99.90;;;;;;5040477;28;20044;-65
2023/10/18 02:40:07;;;;;;;1999.90;999.90;;;4.10;99.90;;;;;;5044065;28;20060;-65
2023/10/18 02:42:33;;;;;;;1999.90;999.90;;;4.00;99.90;;;;;;5039518;28;20364;-66
2023/10/18 02:44:59;;;;;;;1999.90;999.90;;;4.00;99.90;;;;;;5046450;28;20039;-65
2023/10/18 02:47:25;;;;;;;1999.90;999.90;;;4.00;99.90;;;;;;5056345;28;20114;-65
2023/10/18 02:49:53;;;;;;;1999.90;999.90;;;4.00;99.90;;;;;;5043127;28;20099;-65
2023/10/18 02:52:19;;;;;;;1999.90;999.90;;;4.00;99.90;;;;;;5047156;28;20071;-65
2023/10/18 02:54:48;;;;;;;1999.90;999.90;;;4.00;99.90;;;;;;5038108;28;20041;-65
2023/10/18 02:57:14;;;;;;;1999.90;999.90;;;4.00;99.90;;;;;;5043080;28;20087;-65
2023/10/18 02:59:42;;;;;;;1999.90;999.90;;;4.00;99.90;;;;;;5042323;28;20080;-65
2023/10/18 03:02:14;;;;;;;1999.90;999.90;;;4.00;99.90;;;;;;5026577;28;20049;-65
2023/10/18 03:04:42;;;;;;;1999.90;999.90;;;4.00;99.90;;;;;;5041119;28;20044;-65
2023/10/18 03:07:12;;;;;;;1999.90;999.90;;;4.10;99.90;;;;;;5046414;28;20042;-65
2023/10/18 03:09:41;;;;;;;1999.90;999.90;;;4.10;99.90;;;;;;5055608;28;20051;-65
2023/10/18 03:12:13;;;;;;;1999.90;999.90;;;4.10;99.90;;;;;;5043295;28;20448;-65
2023/10/18 03:14:39;;;;;;;1999.90;999.90;;;4.10;99.90;;;;;;5044949;28;20039;-65
2023/10/18 03:17:24;;;;;;;1999.90;999.90;;;4.10;99.90;;;;;;5046823;28;20041;-65
2023/10/18 03:19:53;;;;;;;1999.90;999.90;;;4.10;99.90;;;;;;5046376;28;20053;-65
2023/10/18 03:22:20;;;;;;;1999.90;999.90;;;4.20;99.90;;;;;;5041502;28;20466;-65
2023/10/18 03:24:56;;;;;;;1999.90;999.90;;;4.20;99.90;;;;;;5044439;28;20055;-65
2023/10/18 03:27:33;;;;;;;1999.90;999.90;;;4.20;99.90;;;;;;5030615;28;20048;-65
2023/10/18 03:30:08;;;;;;;1999.90;999.90;;;4.20;99.90;;;;;;5039109;28;20375;-65
2023/10/18 03:32:34;;;;;;;1999.90;999.90;;;4.20;99.90;;;;;;5046117;28;20123;-65
2023/10/18 03:35:00;;;;;;;1999.90;999.90;;;4.20;99.90;;;;;;5044938;28;20125;-66
2023/10/18 03:37:25;;;;;;;1999.90;999.90;;;4.20;99.90;;;;;;5046554;28;20041;-65
2023/10/18 03:39:55;;;;;;;1999.90;999.90;;;4.10;99.90;;;;;;5058266;28;20037;-65
2023/10/18 03:42:33;;;;;;;1999.90;999.90;;;4.10;99.90;;;;;;5041435;28;20056;-65
2023/10/18 03:45:00;;;;;;;1999.90;999.90;;;4.10;99.90;;;;;;5036852;28;20640;-66
2023/10/18 03:47:28;;;;;;;1999.90;999.90;;;4.10;99.90;;;;;;5043713;28;20045;-65
2023/10/18 03:49:55;;;;;;;1999.90;999.90;;;4.00;99.90;;;;;;5020090;28;20045;-65
2023/10/18 03:52:21;;;;;;;1999.90;999.90;;;4.00;99.90;;;;;;5046376;28;20183;-66
2023/10/18 03:57:28;;;;;;;1999.90;999.90;;;4.00;99.90;;;;;;5056708;28;20049;-65
2023/10/18 03:59:58;;;;;;;1999.90;999.90;;;4.00;99.90;;;;;;5048186;28;20067;-65
2023/10/18 04:02:27;;;;;;;1999.90;999.90;;;4.00;99.90;;;;;;5028620;28;20080;-66
2023/10/18 04:05:00;;;;;;;1999.90;999.90;;;3.90;99.90;;;;;;5045617;28;20041;-65
2023/10/18 04:07:26;;;;;;;1999.90;999.90;;;3.90;99.90;;;;;;5038555;28;20081;-65
2023/10/18 04:12:27;;;;;;;1999.90;999.90;;;3.80;99.90;;;;;;5043213;28;20396;-65
2023/10/18 04:14:56;;;;;;;1999.90;999.90;;;3.80;99.90;;;;;;5042230;28;20106;-65
2023/10/18 04:17:37;;;;;;;1999.90;999.90;;;3.80;99.90;;;;;;5028415;28;20045;-65
2023/10/18 04:22:46;;;;;;;1999.90;999.90;;;3.70;99.90;;;;;;5046032;28;20148;-65
2023/10/18 04:25:30;;;;;;;1999.90;999.90;;;3.70;99.90;;;;;;5049445;28;20108;-66
2023/10/18 04:27:59;;;;;;;1999.90;999.90;;;3.70;99.90;;;;;;5046788;28;20044;-66
2023/10/18 04:30:32;;;;;;;1999.90;999.90;;;3.60;99.90;;;;;;5043784;28;20055;-65
2023/10/18 04:33:21;;;;;;;1999.90;999.90;;;3.60;99.90;;;;;;5061065;28;20045;-65
2023/10/18 04:35:51;;;;;;;1999.90;999.90;;;3.60;99.90;;;;;;5043189;28;20643;-65
2023/10/18 04:38:37;;;;;;;1999.90;999.90;;;3.60;99.90;;;;;;5042426;28;20298;-65
2023/10/18 04:43:32;;;;;;;1999.90;999.90;;;3.60;99.90;;;;;;5053109;28;20049;-66
2023/10/18 04:46:14;;;;;;;1999.90;999.90;;;3.60;99.90;;;;;;5030743;28;20408;-65
2023/10/18 04:51:33;;;;;;;1999.90;999.90;;;3.60;99.90;;;;;;5033155;28;20469;-65
2023/10/18 04:54:01;;;;;;;1999.90;999.90;;;3.60;99.90;;;;;;5035144;28;20037;-66
2023/10/18 04:56:42;;;;;;;1999.90;999.90;;;3.60;99.90;;;;;;5046570;28;20047;-66
2023/10/18 04:59:11;;;;;;;1999.90;999.90;;;3.70;99.90;;;;;;5043612;28;20393;-66
2023/10/18 05:04:25;;;;;;;1999.90;999.90;;;3.70;99.90;;;;;;5048569;28;20045;-66
2023/10/18 05:06:54;;;;;;;1999.90;999.90;;;3.70;99.90;;;;;;5057311;28;20045;-65
2023/10/18 05:09:29;;;;;;;1999.90;999.90;;;3.80;99.90;;;;;;5045627;28;20102;-65
2023/10/18 05:12:16;;;;;;;1999.90;999.90;;;3.80;99.90;;;;;;5048845;28;20049;-66
2023/10/18 05:17:30;;;;;;;1999.90;999.90;;;3.80;99.90;;;;;;5031770;28;20045;-66
2023/10/18 05:19:56;;;;;;;1999.90;999.90;;;3.80;99.90;;;;;;5037746;28;20123;-65
2023/10/18 05:22:25;;;;;;;1999.90;999.90;;;3.80;99.90;;;;;;5026478;28;20041;-66
2023/10/18 05:24:56;;;;;;;1999.90;999.90;;;3.80;99.90;;;;;;5047114;28;20037;-65
2023/10/18 05:27:27;;;;;;;1999.90;999.90;;;3.80;99.90;;;;;;5048430;28;20535;-65
2023/10/18 05:29:53;;;;;;;1999.90;999.90;;;3.80;99.90;;;;;;5043578;28;20041;-66
2023/10/18 05:35:43;;;;;;;1999.90;999.90;;;3.90;99.90;;;;;;5043315;28;20040;-66
2023/10/18 05:38:19;;;;;;;1999.90;999.90;;;3.80;99.90;;;;;;5036519;28;20060;-66
2023/10/18 05:40:55;;;;;;;1999.90;999.90;;;3.90;99.90;;;;;;5025235;28;20166;-66
2023/10/18 05:43:31;;;;;;;1999.90;999.90;;;3.90;99.90;;;;;;5048711;28;20473;-66
2023/10/18 05:45:59;;;;;;;1999.90;999.90;;;3.90;99.90;;;;;;5037226;28;20094;-65
2023/10/18 05:48:25;;;;;;;1999.90;999.90;;;4.00;99.90;;;;;;5045511;28;20045;-65
2023/10/18 05:51:25;;;;;;;1999.90;999.90;;;4.00;99.90;;;;;;5046560;28;20040;-66
2023/10/18 05:53:50;;;;;;;1999.90;999.90;;;4.10;99.90;;;;;;5046569;28;20049;-66
2023/10/18 05:56:15;;;;;;;1999.90;999.90;;;4.10;99.90;;;;;;5041476;28;20048;-66
2023/10/18 05:58:41;;;;;;;1999.90;999.90;;;4.10;99.90;;;;;;5053351;28;20146;-65
2023/10/18 06:01:06;;;;;;;1999.90;999.90;;;4.10;99.90;;;;;;5036879;28;20045;-66
2023/10/18 06:03:41;;;;;;;1999.90;999.90;;;4.20;99.90;;;;;;5040753;28;20037;-66
2023/10/18 06:06:09;;;;;;;1999.90;999.90;;;4.20;99.90;;;;;;5046670;28;20433;-66
2023/10/18 06:08:36;;;;;;;1999.90;999.90;;;4.20;99.90;;;;;;5038941;28;20037;-66
2023/10/18 06:11:08;;;;;;;1999.90;999.90;;;4.20;99.90;;;;;;5041884;28;20041;-66
2023/10/18 06:13:37;;;;;;;1999.90;999.90;;;4.20;99.90;;;;;;5036810;28;20045;-66
2023/10/18 06:16:19;;;;;;;1999.90;999.90;;;4.20;99.90;;;;;;5027071;28;20210;-66
2023/10/18 06:18:49;;;;;;;1999.90;999.90;;;4.30;99.90;;;;;;5036283;28;20587;-66
2023/10/18 06:21:18;;;;;;;1999.90;999.90;;;4.30;99.90;;;;;;5042773;28;20056;-66
2023/10/18 06:23:57;;;;;;;1999.90;999.90;;;4.30;99.90;;;;;;5022995;28;20060;-66
2023/10/18 06:26:29;;;;;;;1999.90;999.90;;;4.40;99.90;;;;;;5027502;28;20060;-67
2023/10/18 06:29:00;;;;;;;1999.90;999.90;;;4.40;99.90;;;;;;5027699;28;20132;-66
2023/10/18 06:31:28;;;;;;;1999.90;999.90;;;4.40;99.90;;;;;;5038146;28;20409;-67
2023/10/18 06:33:56;;;;;;;1999.90;999.90;;;4.50;99.90;;;;;;5037014;28;20030;-66
2023/10/18 06:36:24;;;;;;;1999.90;999.90;;;4.50;99.90;;;;;;5054664;28;20051;-68
2023/10/18 06:38:50;;;;;;;1999.90;999.90;;;4.60;99.90;;;;;;5028166;28;20036;-67
2023/10/18 06:41:21;;;;;;;1999.90;999.90;;;4.60;99.90;;;;;;5035413;28;20149;-66
2023/10/18 06:43:47;;;;;;;1999.90;999.90;;;4.60;99.90;;;;;;5032764;28;20106;-66
2023/10/18 06:46:26;;;;;;;1999.90;999.90;;;4.70;99.90;;;;;;5043128;28;20044;-66
2023/10/18 06:48:56;;;;;;;1999.90;999.90;;;4.80;99.90;;;;;;5039119;28;20665;-67
2023/10/18 06:51:31;;;;;;;1999.90;999.90;;;4.80;99.90;;;;;;5039529;28;20065;-66
2023/10/18 06:54:03;;;;;;;1999.90;999.90;;;4.80;99.90;;;;;;5047010;28;20067;-66
2023/10/18 06:56:32;;;;;;;1999.90;999.90;;;4.90;99.90;;;;;;5034411;28;20045;-66
2023/10/18 06:59:09;;;;;;;1999.90;999.90;;;4.90;99.90;;;;;;5056991;28;20393;-66
2023/10/18 07:01:41;;;;;;;1999.90;999.90;;;5.00;99.90;;;;;;5046801;28;20091;-66
2023/10/18 07:04:17;;;;;;;1999.90;999.90;;;5.10;99.90;;;;;;5043396;28;20559;-66
2023/10/18 07:06:44;;;;;;;1999.90;999.90;;;5.20;99.90;;;;;;5026312;28;20400;-66
2023/10/18 07:09:32;;;;;;;1999.90;999.90;;;5.20;99.90;;;;;;5044089;28;20445;-67
2023/10/18 07:11:57;;;;;;;1999.90;999.90;;;5.30;99.90;;;;;;5050426;28;20064;-66
2023/10/18 07:14:24;;;;;;;1999.90;999.90;;;5.40;99.90;;;;;;5046711;28;20044;-66
2023/10/18 07:16:54;;;;;;;1999.90;999.90;;;5.40;99.90;;;;;;5046135;28;20068;-67
2023/10/18 07:22:39;;;;;;;1999.90;999.90;;;5.60;99.90;;;;;;5007524;28;20053;-66
2023/10/18 07:25:08;;;;;;;1999.90;999.90;;;5.60;99.90;;;;;;5055003;28;20418;-67
2023/10/18 07:27:35;;;;;;;1999.90;999.90;;;5.70;99.90;;;;;;5044977;28;20047;-67
2023/10/18 07:30:01;;;;;;;1999.90;999.90;;;5.80;99.90;;;;;;5038529;28;20502;-67
2023/10/18 07:32:28;;;;;;;1999.90;999.90;;;5.80;99.90;;;;;;5052135;28;20098;-66
2023/10/18 07:34:57;;;;;;;1999.90;999.90;;;5.90;99.90;;;;;;5024970;28;20439;-66
2023/10/18 07:37:31;;;;;;;1999.90;999.90;;;6.00;99.90;;;;;;5020768;28;20045;-67
2023/10/18 07:39:59;;;;;;;1999.90;999.90;;;6.10;99.90;;;;;;5033022;28;20056;-67
2023/10/18 07:42:34;;;;;;;1999.90;999.90;;;6.10;99.90;;;;;;5024479;28;20414;-66
2023/10/18 07:45:04;;;;;;;1999.90;999.90;;;6.20;99.90;;;;;;5037495;28;20063;-67
2023/10/18 07:47:32;;;;;;;1999.90;999.90;;;6.20;99.90;;;;;;5035788;28;20045;-66
2023/10/18 07:50:01;;;;;;;1999.90;999.90;;;6.30;99.90;;;;;;5038954;28;20049;-67
2023/10/18 07:52:26;;;;;;;1999.90;999.90;;;6.40;99.90;;;;;;5036158;28;20458;-67
2023/10/18 07:54:52;;;;;;;1999.90;999.90;;;6.40;99.90;;;;;;5042342;28;20106;-66
2023/10/18 07:57:18;;;;;;;1999.90;999.90;;;6.50;99.90;;;;;;5032962;28;20486;-66
2023/10/18 07:59:47;;;;;;;1999.90;999.90;;;6.50;99.90;;;;;;5043298;28;20503;-67
2023/10/18 08:02:19;;;;;;;1999.90;999.90;;;6.60;99.90;;;;;;5057600;28;20491;-66
2023/10/18 08:04:47;;;;;;;1999.90;999.90;;;6.70;99.90;;;;;;5037799;28;20048;-65
2023/10/18 08:07:19;;;;;;;1999.90;999.90;;;6.80;99.90;;;;;;5044979;28;20041;-66
2023/10/18 08:09:48;;;;;;;1999.90;999.90;;;6.80;99.90;;;;;;5039238;28;20508;-66
2023/10/18 08:12:33;;;;;;;1999.90;999.90;;;6.90;99.90;;;;;;5046727;28;20037;-66
2023/10/18 08:14:59;;;;;;;1999.90;999.90;;;7.00;99.90;;;;;;5044898;28;20447;-66
2023/10/18 08:22:50;;;;;;;1999.90;999.90;;;7.30;99.90;;;;;;5054603;28;20588;-67
2023/10/18 08:25:22;;;;;;;1999.90;999.90;;;7.30;99.90;;;;;;5045328;28;20049;-67
2023/10/18 08:27:51;;;;;;;1999.90;999.90;;;7.40;99.90;;;;;;5054472;28;20044;-67
2023/10/18 08:30:24;;;;;;;1999.90;999.90;;;7.60;99.90;;;;;;5051468;28;20156;-66
2023/10/18 08:32:51;;;;;;;1999.90;999.90;;;7.60;99.90;;;;;;5044191;28;20064;-67
2023/10/18 08:35:20;;;;;;;1999.90;999.90;;;7.70;99.90;;;;;;5044164;28;20049;-67
2023/10/18 08:37:46;;;;;;;1999.90;999.90;;;7.80;99.90;;;;;;5048456;28;20072;-67
2023/10/18 08:40:28;;;;;;;1999.90;999.90;;;7.80;99.90;;;;;;5042627;28;20450;-68
2023/10/18 08:43:08;;;;;;;1999.90;999.90;;;7.90;99.90;;;;;;5042971;28;20048;-66
2023/10/18 08:45:36;;;;;;;1999.90;999.90;;;8.00;99.90;;;;;;5033080;28;20045;-66
2023/10/18 08:48:11;;;;;;;1999.90;999.90;;;8.10;99.90;;;;;;5049536;28;20077;-67
2023/10/18 08:50:39;;;;;;;;;;;8.10;99.90;;;;;;5052360;28;20046;-66
2023/10/18 08:53:05;;;;;;;1999.90;999.90;;;8.20;99.90;;;;;;5047942;28;19921;-67
2023/10/18 08:58:19;;;;;;;1999.90;999.90;;;8.30;99.90;;;;;;5047518;28;20391;-66
2023/10/18 09:03:23;;;;;;;1999.90;999.90;;;8.50;99.90;;;;;;5048008;28;20071;-66
2023/10/18 09:05:52;;;;;;;1999.90;999.90;;;8.50;99.90;;;;;;5047745;28;20094;-66
2023/10/18 09:08:19;;;;;;;1999.90;999.90;;;8.60;99.90;;;;;;5037274;28;20048;-67
2023/10/18 09:10:55;;;;;;;1999.90;999.90;;;8.60;99.90;;;;;;5042674;28;20040;-66
2023/10/18 09:18:20;;;;;;;1999.90;999.90;;;8.80;99.90;;;;;;5059990;28;20055;-66
2023/10/18 09:20:46;;;;;;;1999.90;999.90;;;8.80;99.90;;;;;;5044396;28;20040;-67
2023/10/18 09:23:21;;;;;;;1999.90;999.90;;;8.90;99.90;;;;;;5043639;28;20124;-66
2023/10/18 09:25:48;;;;;;;1999.90;999.90;;;8.90;99.90;;;;;;5036391;28;20041;-66
2023/10/18 09:28:25;;;;;;;1999.90;999.90;;;9.00;99.90;;;;;;5047644;28;20056;-66
2023/10/18 09:31:00;;;;;;;1999.90;999.90;;;9.00;99.90;;;;;;5040001;28;20056;-66
2023/10/18 09:33:32;;;;;;;1999.90;999.90;;;9.10;99.90;;;;;;5039350;28;20171;-66
2023/10/18 09:36:01;;;;;;;1999.90;999.90;;;9.20;99.90;;;;;;5047299;28;20111;-66
2023/10/18 09:38:41;;;;;;;1999.90;999.90;;;9.20;99.90;;;;;;5048989;28;20094;-66
2023/10/18 09:41:07;;;;;;;1999.90;999.90;;;9.30;99.90;;;;;;5043103;28;20152;-66
2023/10/18 09:43:34;;;;;;;1999.90;999.90;;;9.30;99.90;;;;;;5042288;28;20124;-67
2023/10/18 09:46:00;;;;;;;1999.90;999.90;;;9.40;99.90;;;;;;5042459;28;20040;-67
2023/10/18 09:48:31;;;;;;;1999.90;999.90;;;9.50;99.90;;;;;;5038685;28;20412;-67
2023/10/18 09:51:06;;;;;;;1999.90;999.90;;;9.50;99.90;;;;;;5036578;28;20098;-67
2023/10/18 09:53:43;;;;;;;1999.90;999.90;;;9.60;99.90;;;;;;5038827;28;20563;-67
2023/10/18 09:56:13;;;;;;;1999.90;999.90;;;9.70;99.90;;;;;;5034024;28;20445;-66
2023/10/18 09:58:44;;;;;;;1999.90;999.90;;;9.80;99.90;;;;;;5039909;28;20064;-67
2023/10/18 10:01:13;;;;;;;1999.90;999.90;;;9.90;99.90;;;;;;5027055;28;20040;-67
2023/10/18 10:03:53;;;;;;;1999.90;999.90;;;10.00;99.90;;;;;;5042596;28;20084;-67
2023/10/18 10:06:24;;;;;;;1999.90;999.90;;;10.10;99.90;;;;;;5038549;28;20487;-67
2023/10/18 10:11:37;;;;;;;1999.90;999.90;;;10.20;99.90;;;;;;5041094;28;20418;-67
2023/10/18 10:14:07;;;;;;;1999.90;999.90;;;10.30;99.90;;;;;;5032979;28;20044;-67
2023/10/18 10:16:34;;;;;;;1999.90;999.90;;;10.40;99.90;;;;;;5023566;28;20128;-67
2023/10/18 10:19:05;;;;;;;1999.90;999.90;;;10.60;99.90;;;;;;5047738;28;20084;-67
2023/10/18 10:21:34;;;;;;;1999.90;999.90;;;10.70;99.90;;;;;;5046724;28;20127;-67
2023/10/18 10:24:29;;;;;;;1999.90;999.90;;;10.70;99.90;;;;;;5046369;28;20049;-67
2023/10/18 10:26:48;;;;;;;1999.90;999.90;;;10.80;99.90;;;;;;5054249;28;20049;-66
2023/10/18 10:29:33;;;;;;;1999.90;999.90;;;10.90;99.90;;;;;;5047915;28;20731;-67
2023/10/18 10:32:04;;;;;;;1999.90;999.90;;;10.90;99.90;;;;;;5039251;28;20055;-67
2023/10/18 10:34:41;;;;;;;1999.90;999.90;;;10.90;99.90;;;;;;5037863;28;20355;-66
2023/10/18 10:37:12;;;;;;;1999.90;999.90;;;11.00;99.90;;;;;;5031161;28;20044;-66
2023/10/18 10:39:45;;;;;;;1999.90;999.90;;;11.00;99.90;;;;;;5042280;28;20671;-66
2023/10/18 10:42:41;;;;;;;1999.90;999.90;;;11.00;99.90;;;;;;5019664;28;20425;-67
2023/10/18 10:45:30;;;;;;;1999.90;999.90;;;11.10;99.90;;;;;;5055773;28;20509;-68
2023/10/18 10:47:57;;;;;;;1999.90;999.90;;;11.10;99.90;;;;;;5041110;28;20524;-66
2023/10/18 10:50:45;;;;;;;1999.90;999.90;;;11.10;99.90;;;;;;5038569;28;20048;-66
2023/10/18 10:53:11;;;;;;;1999.90;999.90;;;11.10;99.90;;;;;;5025182;28;20041;-66
2023/10/18 10:55:38;;;;;;;1999.90;999.90;;;11.10;99.90;;;;;;5024321;28;20045;-66
2023/10/18 10:58:16;;;;;;;1999.90;999.90;;;11.20;99.90;;;;;;5043371;28;20045;-66
2023/10/18 11:01:03;;;;;;;1999.90;999.90;;;11.20;99.90;;;;;;5039455;28;20047;-66
2023/10/18 11:03:30;;;;;;;1999.90;999.90;;;11.20;99.90;;;;;;5052050;28;20397;-67
2023/10/18 11:05:59;;;;;;;1999.90;999.90;;;11.20;99.90;;;;;;5037078;28;20045;-66
2023/10/18 11:08:28;;;;;;;1999.90;999.90;;;11.40;99.90;;;;;;5041689;28;20489;-67
2023/10/18 11:10:57;;;;;;;1999.90;999.90;;;11.40;99.90;;;;;;5036966;28;20083;-66
2023/10/18 11:13:24;;;;;;;1999.90;999.90;;;11.50;99.90;;;;;;5038845;28;20392;-66
2023/10/18 11:15:52;;;;;;;1999.90;999.90;;;11.50;99.90;;;;;;5023606;28;20127;-66
2023/10/18 11:18:20;;;;;;;1999.90;999.90;;;11.50;99.90;;;;;;5037944;28;20064;-66
2023/10/18 11:21:18;;;;;;;1999.90;999.90;;;11.60;99.90;;;;;;5051796;28;20129;-67
2023/10/18 11:23:38;;;;;;;1999.90;999.90;;;11.60;99.90;;;;;;5030328;28;20053;-66
2023/10/18 11:26:09;;;;;;;1999.90;999.90;;;11.60;99.90;;;;;;5041010;28;20094;-66
2023/10/18 11:28:37;;;;;;;1999.90;999.90;;;11.70;99.90;;;;;;5037148;28;20303;-66
2023/10/18 11:31:04;;;;;;;1999.90;999.90;;;11.70;99.90;;;;;;5040368;28;20043;-66
2023/10/18 11:33:37;;;;;;;1999.90;999.90;;;11.80;99.90;;;;;;5043465;28;20049;-66
2023/10/18 11:36:08;;;;;;;1999.90;999.90;;;11.70;99.90;;;;;;5044450;28;20037;-66
2023/10/18 11:38:34;;;;;;;1999.90;999.90;;;11.80;99.90;;;;;;5044305;28;20055;-66
2023/10/18 11:41:09;;;;;;;1999.90;999.90;;;11.80;99.90;;;;;;5045964;28;20071;-66
2023/10/18 11:43:40;;;;;;;1999.90;999.90;;;11.80;99.90;;;;;;5023004;28;20067;-66
2023/10/18 11:46:07;;;;;;;1999.90;999.90;;;11.90;99.90;;;;;;5050348;28;20047;-67
2023/10/18 11:48:34;;;;;;;1999.90;999.90;;;11.90;99.90;;;;;;5034582;28;20048;-66
2023/10/18 11:51:02;;;;;;;1999.90;999.90;;;12.00;99.90;;;;;;5038734;28;20079;-67
2023/10/18 11:53:28;;;;;;;1999.90;999.90;;;12.10;99.90;;;;;;5042275;28;20077;-66
2023/10/18 11:55:57;;;;;;;1999.90;999.90;;;12.10;99.90;;;;;;5039680;28;20071;-66
2023/10/18 11:58:25;;;;;;;1999.90;999.90;;;12.20;99.90;;;;;;5037271;28;20059;-66
2023/10/18 12:01:01;;;;;;;1999.90;999.90;;;12.30;99.90;;;;;;5052954;28;20568;-67
2023/10/18 12:03:33;;;;;;;1999.90;999.90;;;12.30;99.90;;;;;;5043269;28;20583;-66
2023/10/18 12:06:00;;;;;;;1999.90;999.90;;;12.40;99.90;;;;;;5032969;28;20056;-67
2023/10/18 12:08:30;;;;;;;1999.90;999.90;;;12.40;99.90;;;;;;5052373;28;20049;-66
2023/10/18 12:10:57;;;;;;;1999.90;999.90;;;12.40;99.90;;;;;;5044321;28;20045;-66
2023/10/18 12:13:24;;;;;;;1999.90;999.90;;;12.40;99.90;;;;;;5047253;28;20061;-67
2023/10/18 12:15:50;;;;;;;1999.90;999.90;;;12.40;99.90;;;;;;5054190;28;20975;-66
2023/10/18 12:18:16;;;;;;;1999.90;999.90;;;12.40;99.90;;;;;;5049553;28;20132;-66
2023/10/18 12:20:45;;;;;;;1999.90;999.90;;;12.40;99.90;;;;;;5037843;28;20051;-66
2023/10/18 12:23:21;;;;;;;1999.90;999.90;;;12.50;99.90;;;;;;5055147;28;20413;-67
2023/10/18 12:25:47;;;;;;;1999.90;999.90;;;12.50;99.90;;;;;;5042116;28;20049;-68
2023/10/18 12:28:27;;;;;;;1999.90;999.90;;;12.50;99.90;;;;;;5036805;28;20052;-66
2023/10/18 12:30:55;;;;;;;1999.90;999.90;;;12.50;99.90;;;;;;5019845;28;20051;-67
2023/10/18 12:33:27;;;;;;;1999.90;999.90;;;12.50;99.90;;;;;;5035630;28;20497;-66
2023/10/18 12:35:56;;;;;;;1999.90;999.90;;;12.50;99.90;;;;;;5047411;28;20037;-66
2023/10/18 12:38:32;;;;;;;1999.90;999.90;;;12.40;99.90;;;;;;5045262;28;20413;-66
2023/10/18 12:40:59;;;;;;;1999.90;999.90;;;12.30;99.90;;;;;;5043749;28;20098;-66
2023/10/18 12:43:25;;;;;;;1999.90;999.90;;;12.30;99.90;;;;;;5010277;28;20111;-66
2023/10/18 12:45:51;;;;;;;1999.90;999.90;;;12.30;99.90;;;;;;5037786;28;20182;-66
2023/10/18 12:48:23;;;;;;;1999.90;999.90;;;12.20;99.90;;;;;;5038087;28;20561;-66
2023/10/18 12:50:53;;;;;;;1999.90;999.90;;;12.20;99.90;;;;;;5036445;28;20477;-66
2023/10/18 12:58:47;;;;;;;1999.90;999.90;;;12.10;99.90;;;;;;5040037;28;20393;-66
2023/10/18 13:01:16;;;;;;;1999.90;999.90;;;12.10;99.90;;;;;;5032121;28;20497;-66
2023/10/18 13:03:45;;;;;;;1999.90;999.90;;;12.10;99.90;;;;;;5038322;28;20392;-66
2023/10/18 13:06:17;;;;;;;1999.90;999.90;;;12.20;99.90;;;;;;5040880;28;20576;-67
2023/10/18 13:08:56;;;;;;;1999.90;999.90;;;12.20;99.90;;;;;;5046777;28;20111;-66
2023/10/18 13:14:07;;;;;;;;;;;12.20;99.90;;;;;;5037038;28;20568;-66